Loyal, WI

1:00 PM CDT on July 28, 2014 (GMT -0500)
Black River Falls Area (KBCK) Elev 837 ft | 44.25 °N, 90.86 °W | Change Station

Current weather conditions updated 5 minutes ago

Overcast
Overcast
74 °F
Feels Like 74 °F
N
8
Wind Variable Wind from NNW

Today is forecast to be Cooler than yesterday.

Today
High -- | Low -- °F
--% Chance of Precip.
Yesterday
High -- | Low -- °F
Precip. -- in
5:43 AM 8:32 PM
Waxing Crescent, 3% visible
Pressure 30.15 in
Visibility 10.0 miles
Clouds Scattered Clouds 4900 ft
Overcast 6500 ft
Dew Point 44 °F
Humidity 34%
Rainfall 0.00 in
Snow Depth Not available.
UV 3 out of 12
Pollen 6.80 out of 12
Air Quality Not available.
Flu Activity Not available.
METAR KBCK 281755Z AUTO 34007KT 10SM SCT049 OVC065 23/06 A3015 RMK AO2 T02320064 10236 20077

More Conditions Fewer Conditions

Pressure 30.15 in
Visibility 10.0 miles
Clouds Scattered Clouds 4900 ft
Overcast 6500 ft
Dew Point 44 °F
Humidity 34%
Rainfall 0.00 in
Snow Depth Not available.
UV 3 out of 12
Pollen 6.80 out of 12
Air Quality Not available.
Flu Activity Not available.
METAR KBCK 281755Z AUTO 34007KT 10SM SCT049 OVC065 23/06 A3015 RMK AO2 T02320064 10236 20077

More Conditions Fewer Conditions

10-Day Weather Forecast

Almanac

Astronomy

Jul. 28, 2014 Rise Set
Actual Time 5:43 AM CDT 8:32 PM CDT
Civil Twilight 5:09 AM CDT 9:06 PM CDT
Nautical Twilight 4:26 AM CDT 9:49 PM CDT
Astronomical Twilight 3:35 AM CDT 10:39 PM CDT
Moon 7:32 AM CDT 9:06 PM CDT
Length of Visible Light 15h 56m
Length of Day
14h 48m
Tomorrow will be 2m 15s shorter.
Waxing Crescent, 3% of the Moon is Illuminated
Today
Waxing Crescent
Aug 3
First Quarter
Aug 10
Full
Aug 17
Last Quarter
Aug 25
New

Today's Extremes

State Highs State Lows

Community

WunderPhotos

Upload Photos

1,738,429 photos uploaded!

WunderBlogs® & News

Nearby

Snow Depth

Station Depth Elevation
No new snow has been reported.

Earthquake Activity

City Distance Mag. Time & Date
No recent earthquake activity has been reported nearby.
Minimum magnitude displayed is 2.5.

Coastal Water Temperatures

Place Temperature
No Stations Reporting

Nearby Weather Stations

Station Location Temp. Dew Point Humidity Wind Precip. Elev Updated Type
WIDOT Abbotsford - STH 29 3 mi E of Abbo, Abbotsford, WI 69 °F 56 °F 64% NW  at  0 mph 0.00 in / hr 1400 ft 11:53 AM CDT MADIS

Show More Stations Show Fewer Stations